createdAt,value
2018-11-23T00:00:33.781Z,4.66
2018-11-23T00:03:03.452Z,4.63
2018-11-23T00:05:33.020Z,4.49
2018-11-23T00:08:02.278Z,4.51
2018-11-23T00:10:32.727Z,4.54
2018-11-23T00:13:02.070Z,4.46
2018-11-23T00:15:31.374Z,4.58
2018-11-23T00:18:00.830Z,4.72
2018-11-23T00:20:30.909Z,4.50
2018-11-23T00:23:00.257Z,4.39
2018-11-23T00:25:29.917Z,4.42
2018-11-23T00:27:59.404Z,4.44
2018-11-23T00:30:29.873Z,4.46
2018-11-23T00:32:59.460Z,4.82
2018-11-23T00:35:30.145Z,4.71
2018-11-23T00:37:59.590Z,4.57
2018-11-23T00:40:31.010Z,4.82
2018-11-23T00:43:00.799Z,4.88
2018-11-23T00:45:30.272Z,4.79
2018-11-23T00:48:00.111Z,4.82
2018-11-23T00:50:29.422Z,4.68
2018-11-23T00:53:00.085Z,4.78
2018-11-23T00:55:29.965Z,4.52
2018-11-23T00:57:59.780Z,4.55
2018-11-23T01:00:31.588Z,4.63
2018-11-23T01:03:01.581Z,5.41
2018-11-23T01:05:30.961Z,4.96
2018-11-23T01:08:00.417Z,4.92
2018-11-23T01:10:30.644Z,5.30
2018-11-23T01:13:00.354Z,4.88
2018-11-23T01:15:29.745Z,4.95
2018-11-23T01:17:59.111Z,4.87
2018-11-23T01:20:29.103Z,4.62
2018-11-23T01:22:59.038Z,4.70
2018-11-23T01:25:28.937Z,4.70
2018-11-23T01:27:58.460Z,4.69
2018-11-23T01:30:30.109Z,4.67
2018-11-23T01:32:59.509Z,4.73
2018-11-23T01:35:28.777Z,4.83
2018-11-23T01:37:58.225Z,4.68
2018-11-23T01:40:29.019Z,4.71
2018-11-23T01:42:58.865Z,4.75
2018-11-23T01:45:28.266Z,4.73
2018-11-23T01:47:57.680Z,4.69
2018-11-23T01:50:28.402Z,5.04
2018-11-23T01:52:57.948Z,4.77
2018-11-23T01:55:27.873Z,4.82
2018-11-23T01:57:57.231Z,4.74
2018-11-23T02:00:27.771Z,4.79
2018-11-23T02:02:57.496Z,4.70
2018-11-23T02:05:27.119Z,5.07
2018-11-23T02:07:56.330Z,4.77
2018-11-23T02:10:25.698Z,4.84
2018-11-23T02:12:55.029Z,4.70
2018-11-23T02:15:24.553Z,4.58
2018-11-23T02:17:54.128Z,4.53
2018-11-23T02:20:23.810Z,4.55
2018-11-23T02:22:53.214Z,4.64
2018-11-23T02:25:22.776Z,4.59
2018-11-23T02:27:52.151Z,4.53
2018-11-23T02:30:22.827Z,5.33
2018-11-23T02:32:52.283Z,4.97
2018-11-23T02:35:21.758Z,4.85
2018-11-23T02:37:51.219Z,4.64
2018-11-23T02:40:21.220Z,4.66
2018-11-23T02:42:50.725Z,4.63
2018-11-23T02:45:22.869Z,4.73
2018-11-23T02:47:52.283Z,4.46
2018-11-23T02:50:21.997Z,4.67
2018-11-23T02:52:51.466Z,4.99
2018-11-23T02:55:21.319Z,4.75
2018-11-23T02:57:50.843Z,4.72
2018-11-23T03:00:21.564Z,4.80
2018-11-23T03:02:51.073Z,4.67
2018-11-23T03:05:22.573Z,5.03
2018-11-23T03:07:51.996Z,4.65
2018-11-23T03:10:21.344Z,4.55
2018-11-23T03:12:50.787Z,4.68
2018-11-23T03:15:20.828Z,4.69
2018-11-23T03:17:51.083Z,4.68
2018-11-23T03:20:21.562Z,4.78
2018-11-23T03:22:51.064Z,4.41
2018-11-23T03:25:20.516Z,4.50
2018-11-23T03:27:49.861Z,4.66
2018-11-23T03:30:20.524Z,4.52
2018-11-23T03:32:50.548Z,4.83
2018-11-23T03:35:20.494Z,4.46
2018-11-23T03:37:49.794Z,4.54
2018-11-23T03:40:19.034Z,4.56
2018-11-23T03:42:48.422Z,4.60
2018-11-23T03:45:18.154Z,4.49
2018-11-23T03:47:47.590Z,4.40
2018-11-23T03:50:17.677Z,4.57
2018-11-23T03:52:47.391Z,4.37
2018-11-23T03:55:16.828Z,4.51
2018-11-23T03:57:46.361Z,4.50
2018-11-23T04:00:17.861Z,4.39
2018-11-23T04:02:47.391Z,4.40
2018-11-23T04:05:17.027Z,4.35
2018-11-23T04:07:46.383Z,4.20
2018-11-23T04:10:16.332Z,4.23
2018-11-23T04:12:46.108Z,4.30
2018-11-23T04:15:15.708Z,4.21
2018-11-23T04:17:45.109Z,4.61
2018-11-23T04:20:15.635Z,4.44
2018-11-23T04:22:45.025Z,4.26
2018-11-23T04:25:14.735Z,4.54
2018-11-23T04:27:44.465Z,4.23
2018-11-23T04:30:15.380Z,4.22
2018-11-23T04:32:45.188Z,4.11
2018-11-23T04:35:15.837Z,4.19
2018-11-23T04:37:46.047Z,4.46
2018-11-23T04:40:16.083Z,4.44
2018-11-23T04:42:45.368Z,4.29
2018-11-23T04:45:15.150Z,4.49
2018-11-23T04:47:44.622Z,4.41
2018-11-23T04:50:15.055Z,4.11
2018-11-23T04:52:44.795Z,4.22
2018-11-23T04:55:14.344Z,4.48
2018-11-23T04:57:44.277Z,4.66
2018-11-23T05:00:16.154Z,4.23
2018-11-23T05:02:46.342Z,4.33
2018-11-23T05:05:15.863Z,4.10
2018-11-23T05:07:46.465Z,4.15
2018-11-23T05:10:16.923Z,3.98
2018-11-23T05:12:46.335Z,4.20
2018-11-23T05:15:17.018Z,4.16
2018-11-23T05:17:46.698Z,4.23
2018-11-23T05:20:16.588Z,3.95
2018-11-23T05:22:46.170Z,3.96
2018-11-23T05:25:16.805Z,3.93
2018-11-23T05:27:46.302Z,4.11
2018-11-23T05:30:17.943Z,4.08
2018-11-23T05:32:47.330Z,4.05
2018-11-23T05:35:17.791Z,4.10
2018-11-23T05:37:47.085Z,4.22
2018-11-23T05:40:18.145Z,4.57
2018-11-23T05:42:47.372Z,4.15
2018-11-23T05:45:17.966Z,4.50
2018-11-23T05:47:47.657Z,4.38
2018-11-23T05:50:31.292Z,4.28
2018-11-23T05:53:00.913Z,4.48
2018-11-23T05:55:30.364Z,4.45
2018-11-23T05:57:59.800Z,4.29
2018-11-23T06:00:30.894Z,4.18
2018-11-23T06:03:00.306Z,4.53
2018-11-23T06:05:29.848Z,4.32
2018-11-23T06:07:59.214Z,4.32
2018-11-23T06:10:28.408Z,4.43
2018-11-23T06:12:57.867Z,4.55
2018-11-23T06:15:27.379Z,4.24
2018-11-23T06:17:56.741Z,4.47
2018-11-23T06:20:26.810Z,4.20
2018-11-23T06:22:56.576Z,4.27
2018-11-23T06:25:32.049Z,4.20
2018-11-23T06:28:01.450Z,4.44
2018-11-23T06:30:30.720Z,4.47
2018-11-23T06:33:10.761Z,4.86
2018-11-23T06:35:40.071Z,4.54
2018-11-23T06:38:09.514Z,4.98
2018-11-23T06:40:38.943Z,4.63
2018-11-23T06:43:08.375Z,4.56
2018-11-23T06:45:39.982Z,4.74
2018-11-23T06:48:10.366Z,4.87
2018-11-23T06:50:39.817Z,4.63
2018-11-23T06:53:09.384Z,4.89
2018-11-23T06:55:38.986Z,4.68
2018-11-23T06:58:08.532Z,4.66
2018-11-23T07:00:38.137Z,4.98
2018-11-23T07:03:07.617Z,4.64
2018-11-23T07:05:37.516Z,4.85
2018-11-23T07:08:07.494Z,5.05
2018-11-23T07:10:37.112Z,4.93
2018-11-23T07:13:07.005Z,4.97
2018-11-23T07:15:36.445Z,5.11
2018-11-23T07:18:06.129Z,5.10
2018-11-23T07:20:35.554Z,5.41
2018-11-23T07:23:04.896Z,5.31
2018-11-23T07:25:34.396Z,5.26
2018-11-23T07:28:03.776Z,5.00
2018-11-23T07:30:33.268Z,5.19
2018-11-23T07:33:02.641Z,5.39
2018-11-23T07:35:32.075Z,5.29
2018-11-23T07:38:01.484Z,5.51
2018-11-23T07:40:44.306Z,5.59
2018-11-23T07:43:13.736Z,5.92
2018-11-23T07:45:43.164Z,6.10
2018-11-23T07:48:12.567Z,6.43
2018-11-23T07:50:41.912Z,6.13
2018-11-23T07:53:11.410Z,6.30
2018-11-23T07:55:40.876Z,6.70
2018-11-23T07:58:10.852Z,6.73
2018-11-23T08:00:40.237Z,6.69
2018-11-23T08:03:09.483Z,6.68
2018-11-23T08:05:38.775Z,6.63
2018-11-23T08:08:08.528Z,6.77
2018-11-23T08:10:36.781Z,7.15
2018-11-23T08:13:06.334Z,7.06
2018-11-23T08:15:35.768Z,7.13
2018-11-23T08:18:05.138Z,7.38
2018-11-23T08:20:34.636Z,6.56
2018-11-23T08:23:03.908Z,6.50
2018-11-23T08:25:33.260Z,6.33
2018-11-23T08:28:02.708Z,6.86
2018-11-23T08:30:32.073Z,6.79
2018-11-23T08:33:01.465Z,6.83
2018-11-23T08:35:30.756Z,6.33
2018-11-23T08:38:00.262Z,7.15
2018-11-23T08:40:29.726Z,6.56
2018-11-23T08:42:59.243Z,7.17
2018-11-23T08:45:28.816Z,7.09
2018-11-23T08:47:58.277Z,7.31
2018-11-23T08:50:28.949Z,6.59
2018-11-23T08:52:58.432Z,7.08
2018-11-23T08:55:28.244Z,6.85
2018-11-23T08:57:57.761Z,7.19
2018-11-23T09:00:28.847Z,7.06
2018-11-23T09:02:59.620Z,7.68
2018-11-23T09:05:29.074Z,7.38
2018-11-23T09:07:58.688Z,7.55
2018-11-23T09:10:29.363Z,7.32
2018-11-23T09:13:03.174Z,7.53
2018-11-23T09:15:32.729Z,8.10
2018-11-23T09:18:02.235Z,8.68
2018-11-23T09:20:31.784Z,8.48
2018-11-23T09:23:01.232Z,8.20
2018-11-23T09:25:30.738Z,8.11
2018-11-23T09:28:00.212Z,8.34
2018-11-23T09:30:29.610Z,8.33
2018-11-23T09:32:59.015Z,7.72
2018-11-23T09:35:28.834Z,8.27
2018-11-23T09:37:58.492Z,8.21
2018-11-23T09:40:29.141Z,8.58
2018-11-23T09:42:58.681Z,8.80
2018-11-23T09:45:29.526Z,7.64
2018-11-23T09:48:00.399Z,7.74
2018-11-23T09:50:30.105Z,8.46
2018-11-23T09:53:00.754Z,8.58
2018-11-23T09:55:30.948Z,9.12
2018-11-23T09:58:00.424Z,8.23
2018-11-23T10:00:31.243Z,8.87
2018-11-23T10:03:01.040Z,7.85
2018-11-23T10:05:31.113Z,8.40
2018-11-23T10:08:01.909Z,9.11
2018-11-23T10:10:31.563Z,8.29
2018-11-23T10:13:00.932Z,7.77
2018-11-23T10:15:31.278Z,8.43
2018-11-23T10:18:00.670Z,8.79
2018-11-23T10:20:31.430Z,8.17
2018-11-23T10:23:00.718Z,8.56
2018-11-23T10:25:31.350Z,8.57
2018-11-23T10:28:00.760Z,8.85
2018-11-23T10:30:31.369Z,9.47
2018-11-23T10:33:02.006Z,8.66
2018-11-23T10:35:31.402Z,8.66
2018-11-23T10:38:02.782Z,8.52
2018-11-23T10:40:33.856Z,9.86
2018-11-23T10:43:03.340Z,9.53
2018-11-23T10:45:33.493Z,9.21
2018-11-23T10:48:04.105Z,8.30
2018-11-23T10:50:34.984Z,8.98
2018-11-23T10:53:04.203Z,9.64
2018-11-23T10:55:34.784Z,8.54
2018-11-23T10:58:04.124Z,9.72
2018-11-23T11:00:38.475Z,10.45
2018-11-23T11:03:12.739Z,9.83
2018-11-23T11:05:47.330Z,9.54
2018-11-23T11:08:16.684Z,8.55
2018-11-23T11:10:46.028Z,9.27
2018-11-23T11:13:15.602Z,9.39
2018-11-23T11:15:45.079Z,9.11
2018-11-23T11:18:14.554Z,8.91
2018-11-23T11:20:44.016Z,9.30
2018-11-23T11:23:13.603Z,8.57
2018-11-23T11:25:43.192Z,9.20
2018-11-23T11:28:12.627Z,8.25
2018-11-23T11:30:42.456Z,8.59
2018-11-23T11:33:12.056Z,8.26
2018-11-23T11:35:41.323Z,8.00
2018-11-23T11:38:10.566Z,8.11
2018-11-23T11:40:39.855Z,7.85
2018-11-23T11:43:09.138Z,7.63
2018-11-23T11:45:38.660Z,7.52
2018-11-23T11:48:08.007Z,7.77
2018-11-23T11:50:37.462Z,7.53
2018-11-23T11:53:06.954Z,7.61
2018-11-23T11:55:36.349Z,7.35
2018-11-23T11:58:05.728Z,7.47
2018-11-23T12:00:34.983Z,7.47
2018-11-23T12:03:04.455Z,7.40
2018-11-23T12:05:33.883Z,7.44
2018-11-23T12:08:03.443Z,7.63
2018-11-23T12:10:32.928Z,7.59
2018-11-23T12:13:02.391Z,7.60
2018-11-23T12:15:31.707Z,7.50
2018-11-23T12:18:01.266Z,7.53
2018-11-23T12:20:30.698Z,7.53
2018-11-23T12:22:59.965Z,7.50
2018-11-23T12:25:29.267Z,7.48
2018-11-23T12:27:58.704Z,7.58
2018-11-23T12:30:28.213Z,7.67
2018-11-23T12:32:57.564Z,7.74
2018-11-23T12:35:26.924Z,7.84
2018-11-23T12:37:56.432Z,7.84
2018-11-23T12:40:25.824Z,7.83
2018-11-23T12:42:55.252Z,7.74
2018-11-23T12:45:24.904Z,7.84
2018-11-23T12:47:54.312Z,7.79
2018-11-23T12:50:24.183Z,8.03
2018-11-23T12:52:53.532Z,8.14
2018-11-23T12:55:22.957Z,8.26
2018-11-23T12:57:52.214Z,8.15
2018-11-23T13:00:26.208Z,7.92
2018-11-23T13:02:58.066Z,8.42
2018-11-23T13:05:28.308Z,8.93
2018-11-23T13:07:58.829Z,8.63
2018-11-23T13:10:28.869Z,8.37
2018-11-23T13:12:58.892Z,8.56
2018-11-23T13:15:28.515Z,8.19
2018-11-23T13:17:58.508Z,8.08
2018-11-23T13:20:28.408Z,8.24
2018-11-23T13:22:58.001Z,8.17
2018-11-23T13:25:29.247Z,8.10
2018-11-23T13:27:59.001Z,7.95
2018-11-23T13:30:34.552Z,8.01
2018-11-23T13:33:04.073Z,7.99
2018-11-23T13:35:33.591Z,7.98
2018-11-23T13:38:03.229Z,7.96
2018-11-23T13:40:32.629Z,8.28
2018-11-23T13:43:02.083Z,8.23
2018-11-23T13:45:32.970Z,8.18
2018-11-23T13:48:02.443Z,7.89
2018-11-23T13:50:31.979Z,7.83
2018-11-23T13:53:02.493Z,7.77
2018-11-23T13:55:31.852Z,7.62
2018-11-23T13:58:01.333Z,7.36
2018-11-23T14:00:31.162Z,7.29
2018-11-23T14:03:00.615Z,7.22
2018-11-23T14:05:31.456Z,7.21
2018-11-23T14:08:01.841Z,7.06
2018-11-23T14:10:31.627Z,7.04
2018-11-23T14:13:01.066Z,7.05
2018-11-23T14:15:31.566Z,6.84
2018-11-23T14:18:01.343Z,6.78
2018-11-23T14:20:31.068Z,6.76
2018-11-23T14:23:00.426Z,6.67
2018-11-23T14:25:30.957Z,6.66
2018-11-23T14:28:00.446Z,6.52
2018-11-23T14:30:31.335Z,6.46
2018-11-23T14:33:01.434Z,6.42
2018-11-23T14:35:31.657Z,6.88
2018-11-23T14:38:01.437Z,7.19
2018-11-23T14:40:30.872Z,6.91
2018-11-23T14:43:00.416Z,6.73
2018-11-23T14:45:32.033Z,6.64
2018-11-23T14:48:05.923Z,6.85
2018-11-23T14:50:36.543Z,6.82
2018-11-23T14:53:06.003Z,6.80
2018-11-23T14:55:35.519Z,6.77
2018-11-23T14:58:04.855Z,6.64
2018-11-23T15:00:35.588Z,6.54
2018-11-23T15:03:05.903Z,6.48
2018-11-23T15:05:35.644Z,6.25
2018-11-23T15:08:05.153Z,6.19
2018-11-23T15:10:35.354Z,6.17
2018-11-23T15:13:05.483Z,6.05
2018-11-23T15:15:36.190Z,6.07
2018-11-23T15:18:06.012Z,5.91
2018-11-23T15:20:37.605Z,6.16
2018-11-23T15:23:15.747Z,6.17
2018-11-23T15:25:45.102Z,5.93
2018-11-23T15:28:15.023Z,5.75
2018-11-23T15:30:45.388Z,5.72
2018-11-23T15:33:17.152Z,5.92
2018-11-23T15:35:46.637Z,5.76
2018-11-23T15:38:18.320Z,5.78
2018-11-23T15:40:48.107Z,5.76
2018-11-23T15:43:18.376Z,5.76
2018-11-23T15:45:47.878Z,5.46
2018-11-23T15:48:17.333Z,5.51
2018-11-23T15:50:46.823Z,5.50
2018-11-23T15:53:17.111Z,5.51
2018-11-23T15:55:46.654Z,5.35
2018-11-23T15:58:17.270Z,5.44
2018-11-23T16:00:48.042Z,5.77
2018-11-23T16:03:17.886Z,5.32
2018-11-23T16:05:47.242Z,5.29
2018-11-23T16:08:17.953Z,5.32
2018-11-23T16:10:47.401Z,5.30
2018-11-23T16:13:16.780Z,5.24
2018-11-23T16:15:46.245Z,5.20
2018-11-23T16:18:15.552Z,5.21
2018-11-23T16:20:46.109Z,5.19
2018-11-23T16:23:16.911Z,5.24
2018-11-23T16:25:47.082Z,5.38
2018-11-23T16:28:16.602Z,5.37
2018-11-23T16:30:47.441Z,5.44
2018-11-23T16:33:19.195Z,5.63
2018-11-23T16:35:48.784Z,5.78
2018-11-23T16:38:20.327Z,5.58
2018-11-23T16:40:51.168Z,5.59
2018-11-23T16:43:20.464Z,5.63
2018-11-23T16:45:49.998Z,5.64
2018-11-23T16:48:20.164Z,5.57
2018-11-23T16:50:50.546Z,5.55
2018-11-23T16:53:20.022Z,5.55
2018-11-23T16:55:49.365Z,5.59
2018-11-23T16:58:18.983Z,5.56
2018-11-23T17:00:48.715Z,5.55
2018-11-23T17:03:19.582Z,5.63
2018-11-23T17:05:50.204Z,5.59
2018-11-23T17:08:19.668Z,5.62
2018-11-23T17:10:49.133Z,5.63
2018-11-23T17:13:18.526Z,5.63
2018-11-23T17:15:47.808Z,5.40
2018-11-23T17:18:17.322Z,5.27
2018-11-23T17:20:46.648Z,5.51
2018-11-23T17:23:16.041Z,5.64
2018-11-23T17:25:45.544Z,5.17
2018-11-23T17:28:14.990Z,5.44
2018-11-23T17:30:44.302Z,5.38
2018-11-23T17:33:13.537Z,5.38
2018-11-23T17:35:42.966Z,5.72
2018-11-23T17:38:12.277Z,5.56
2018-11-23T17:40:42.316Z,5.48
2018-11-23T17:43:12.144Z,5.28
2018-11-23T17:45:41.489Z,5.78
2018-11-23T17:48:10.958Z,5.48
2018-11-23T17:50:40.657Z,5.26
2018-11-23T17:53:10.151Z,5.23
2018-11-23T17:55:39.418Z,5.62
2018-11-23T17:58:08.705Z,5.48
2018-11-23T18:00:39.832Z,5.44
2018-11-23T18:03:09.355Z,5.34
2018-11-23T18:05:38.707Z,5.55
2018-11-23T18:08:08.073Z,5.50
2018-11-23T18:10:37.748Z,5.53
2018-11-23T18:13:07.031Z,5.78
2018-11-23T18:15:36.647Z,5.80
2018-11-23T18:18:06.841Z,5.64
2018-11-23T18:20:36.460Z,5.62
2018-11-23T18:23:06.251Z,5.62
2018-11-23T18:25:38.110Z,5.73
2018-11-23T18:28:07.593Z,5.75
2018-11-23T18:30:36.986Z,5.75
2018-11-23T18:33:07.829Z,5.26
2018-11-23T18:35:37.226Z,5.32
2018-11-23T18:38:06.746Z,5.46
2018-11-23T18:40:37.553Z,5.32
2018-11-23T18:43:05.861Z,5.46
2018-11-23T18:45:35.242Z,5.53
2018-11-23T18:48:04.542Z,5.09
2018-11-23T18:50:33.855Z,5.02
2018-11-23T18:53:04.924Z,4.91
2018-11-23T18:55:34.360Z,4.85
2018-11-23T18:58:04.728Z,5.02
2018-11-23T19:00:34.367Z,4.92
2018-11-23T19:03:03.738Z,5.08
2018-11-23T19:05:33.163Z,5.13
2018-11-23T19:08:02.902Z,4.97
2018-11-23T19:10:32.498Z,4.82
2018-11-23T19:13:02.019Z,5.04
2018-11-23T19:15:31.375Z,4.72
2018-11-23T19:18:00.852Z,4.57
2018-11-23T19:20:30.152Z,4.80
2018-11-23T19:22:59.516Z,4.93
2018-11-23T19:25:28.699Z,5.16
2018-11-23T19:27:58.066Z,5.04
2018-11-23T19:30:28.688Z,5.13
2018-11-23T19:32:57.071Z,5.14
2018-11-23T19:35:26.472Z,5.20
2018-11-23T19:37:55.791Z,5.19
2018-11-23T19:40:25.340Z,5.46
2018-11-23T19:42:54.623Z,5.20
2018-11-23T19:45:23.967Z,4.89
2018-11-23T19:47:53.223Z,4.95
2018-11-23T19:50:22.568Z,5.18
2018-11-23T19:52:52.036Z,4.64
2018-11-23T19:55:21.399Z,4.64
2018-11-23T19:57:50.554Z,4.72
2018-11-23T20:00:21.270Z,4.52
2018-11-23T20:02:50.639Z,4.41
2018-11-23T20:05:20.168Z,4.60
2018-11-23T20:07:51.639Z,4.57
2018-11-23T20:10:21.731Z,4.62
2018-11-23T20:12:53.665Z,4.42
2018-11-23T20:15:22.970Z,3.96
2018-11-23T20:17:52.263Z,4.10
2018-11-23T20:20:21.624Z,4.29
2018-11-23T20:22:51.421Z,4.01
2018-11-23T20:25:21.523Z,3.98
2018-11-23T20:27:51.984Z,3.86
2018-11-23T20:30:21.438Z,4.22
2018-11-23T20:32:50.663Z,4.07
2018-11-23T20:35:21.245Z,3.93
2018-11-23T20:37:50.568Z,3.97
2018-11-23T20:40:21.813Z,3.74
2018-11-23T20:42:51.049Z,3.90
2018-11-23T20:45:20.435Z,3.67
2018-11-23T20:47:49.800Z,3.73
2018-11-23T20:50:19.535Z,4.06
2018-11-23T20:52:49.226Z,3.79
2018-11-23T20:55:21.291Z,3.65
2018-11-23T20:57:50.763Z,3.53
2018-11-23T21:00:21.037Z,3.55
2018-11-23T21:02:51.337Z,3.57
2018-11-23T21:05:21.481Z,3.72
2018-11-23T21:07:51.256Z,3.64
2018-11-23T21:10:22.614Z,3.58
2018-11-23T21:12:52.175Z,3.52
2018-11-23T21:15:24.692Z,3.71
2018-11-23T21:17:54.110Z,3.34
2018-11-23T21:20:23.628Z,3.58
2018-11-23T21:22:53.089Z,3.62
2018-11-23T21:25:22.480Z,3.57
2018-11-23T21:27:52.057Z,3.34
2018-11-23T21:30:23.276Z,3.50
2018-11-23T21:32:53.323Z,3.33
2018-11-23T21:35:22.775Z,3.39
2018-11-23T21:37:52.237Z,3.36
2018-11-23T21:40:21.857Z,3.46
2018-11-23T21:42:51.178Z,3.65
2018-11-23T21:45:20.892Z,3.53
2018-11-23T21:47:50.332Z,3.38
2018-11-23T21:50:24.943Z,3.31
2018-11-23T21:52:50.152Z,3.44
2018-11-23T21:55:23.629Z,3.37
2018-11-23T21:57:53.708Z,3.30
2018-11-23T22:00:23.271Z,3.15
2018-11-23T22:02:52.706Z,3.53
2018-11-23T22:05:22.208Z,3.40
2018-11-23T22:07:52.055Z,3.26
2018-11-23T22:10:21.714Z,3.28
2018-11-23T22:12:51.186Z,3.14
2018-11-23T22:15:24.339Z,3.16
2018-11-23T22:17:54.941Z,3.35
2018-11-23T22:20:26.876Z,3.06
2018-11-23T22:22:56.308Z,3.05
2018-11-23T22:25:25.626Z,3.19
2018-11-23T22:27:55.214Z,2.93
2018-11-23T22:30:27.608Z,2.89
2018-11-23T22:32:57.116Z,2.85
2018-11-23T22:35:26.967Z,2.93
2018-11-23T22:37:56.525Z,3.03
2018-11-23T22:40:26.053Z,2.97
2018-11-23T22:42:57.671Z,2.85
2018-11-23T22:45:27.013Z,3.05
2018-11-23T22:47:56.547Z,3.15
2018-11-23T22:50:25.869Z,3.02
2018-11-23T22:52:55.030Z,3.00
2018-11-23T22:55:24.477Z,2.77
2018-11-23T22:57:54.117Z,2.92
2018-11-23T23:00:31.116Z,2.80
2018-11-23T23:03:00.645Z,2.79
2018-11-23T23:05:30.214Z,3.07
2018-11-23T23:07:59.973Z,2.76
2018-11-23T23:10:29.539Z,2.84
2018-11-23T23:12:58.812Z,2.86
2018-11-23T23:15:28.399Z,3.14
2018-11-23T23:17:57.872Z,2.97
2018-11-23T23:20:27.447Z,3.00
2018-11-23T23:22:56.835Z,3.08
2018-11-23T23:25:26.304Z,2.91
2018-11-23T23:27:55.801Z,2.87
2018-11-23T23:30:25.332Z,2.88
2018-11-23T23:32:54.764Z,2.80
2018-11-23T23:35:24.104Z,2.70
2018-11-23T23:37:53.642Z,2.81
2018-11-23T23:40:22.925Z,2.96
2018-11-23T23:42:52.324Z,2.97
2018-11-23T23:45:22.033Z,2.87
2018-11-23T23:47:51.507Z,3.25
2018-11-23T23:50:22.457Z,2.80
2018-11-23T23:52:52.284Z,2.76
2018-11-23T23:55:21.642Z,2.82
2018-11-23T23:57:51.150Z,2.87
